sensor_id;sensor_type;location;lat;lon;timestamp;P1;durP1;ratioP1;P2;durP2;ratioP2
48925;SDS011;39838;59.938;30.642;2023-11-25T00:00:52;17.65;;;9.10;;
48925;SDS011;39838;59.938;30.642;2023-11-25T00:03:20;18.30;;;8.73;;
48925;SDS011;39838;59.938;30.642;2023-11-25T00:05:48;16.17;;;8.18;;
48925;SDS011;39838;59.938;30.642;2023-11-25T00:08:15;17.80;;;8.65;;
48925;SDS011;39838;59.938;30.642;2023-11-25T00:10:43;15.45;;;8.60;;
48925;SDS011;39838;59.938;30.642;2023-11-25T00:13:12;16.35;;;8.68;;
48925;SDS011;39838;59.938;30.642;2023-11-25T00:15:40;17.80;;;9.50;;
48925;SDS011;39838;59.938;30.642;2023-11-25T00:18:07;18.20;;;9.63;;
48925;SDS011;39838;59.938;30.642;2023-11-25T00:20:34;14.85;;;8.93;;
48925;SDS011;39838;59.938;30.642;2023-11-25T00:23:02;14.43;;;8.70;;
48925;SDS011;39838;59.938;30.642;2023-11-25T00:25:30;16.67;;;9.57;;
48925;SDS011;39838;59.938;30.642;2023-11-25T00:27:57;16.33;;;8.77;;
48925;SDS011;39838;59.938;30.642;2023-11-25T00:30:26;16.02;;;8.57;;
48925;SDS011;39838;59.938;30.642;2023-11-25T00:32:54;13.90;;;8.15;;
48925;SDS011;39838;59.938;30.642;2023-11-25T00:35:22;16.67;;;8.90;;
48925;SDS011;39838;59.938;30.642;2023-11-25T00:37:50;18.70;;;9.50;;
48925;SDS011;39838;59.938;30.642;2023-11-25T00:40:18;16.50;;;9.32;;
48925;SDS011;39838;59.938;30.642;2023-11-25T00:42:46;17.40;;;8.75;;
48925;SDS011;39838;59.938;30.642;2023-11-25T00:45:13;18.90;;;9.50;;
48925;SDS011;39838;59.938;30.642;2023-11-25T00:47:42;16.75;;;8.90;;
48925;SDS011;39838;59.938;30.642;2023-11-25T00:50:10;25.25;;;8.85;;
48925;SDS011;39838;59.938;30.642;2023-11-25T00:52:41;16.70;;;8.73;;
48925;SDS011;39838;59.938;30.642;2023-11-25T00:55:08;18.08;;;8.48;;
48925;SDS011;39838;59.938;30.642;2023-11-25T00:57:36;20.75;;;9.68;;
48925;SDS011;39838;59.938;30.642;2023-11-25T01:00:03;18.70;;;10.13;;
48925;SDS011;39838;59.938;30.642;2023-11-25T01:02:35;18.63;;;9.07;;
48925;SDS011;39838;59.938;30.642;2023-11-25T01:05:04;23.38;;;11.88;;
48925;SDS011;39838;59.938;30.642;2023-11-25T01:07:32;19.08;;;9.38;;
48925;SDS011;39838;59.938;30.642;2023-11-25T01:09:59;21.38;;;10.38;;
48925;SDS011;39838;59.938;30.642;2023-11-25T01:12:30;19.23;;;9.93;;
48925;SDS011;39838;59.938;30.642;2023-11-25T01:14:59;17.50;;;9.30;;
48925;SDS011;39838;59.938;30.642;2023-11-25T01:17:26;18.38;;;9.65;;
48925;SDS011;39838;59.938;30.642;2023-11-25T01:19:55;18.17;;;9.73;;
48925;SDS011;39838;59.938;30.642;2023-11-25T01:22:25;20.52;;;10.07;;
48925;SDS011;39838;59.938;30.642;2023-11-25T01:24:52;18.48;;;9.35;;
48925;SDS011;39838;59.938;30.642;2023-11-25T01:27:20;17.42;;;9.38;;
48925;SDS011;39838;59.938;30.642;2023-11-25T01:29:48;21.00;;;10.18;;
48925;SDS011;39838;59.938;30.642;2023-11-25T01:32:16;18.90;;;9.25;;
48925;SDS011;39838;59.938;30.642;2023-11-25T01:34:45;18.02;;;9.70;;
48925;SDS011;39838;59.938;30.642;2023-11-25T01:37:12;20.40;;;9.95;;
48925;SDS011;39838;59.938;30.642;2023-11-25T01:39:44;15.55;;;9.13;;
48925;SDS011;39838;59.938;30.642;2023-11-25T01:42:12;18.40;;;9.32;;
48925;SDS011;39838;59.938;30.642;2023-11-25T01:44:39;18.77;;;9.18;;
48925;SDS011;39838;59.938;30.642;2023-11-25T01:47:07;18.13;;;9.60;;
48925;SDS011;39838;59.938;30.642;2023-11-25T01:49:35;17.42;;;9.45;;
48925;SDS011;39838;59.938;30.642;2023-11-25T01:52:02;20.48;;;9.23;;
48925;SDS011;39838;59.938;30.642;2023-11-25T01:54:31;18.25;;;9.95;;
48925;SDS011;39838;59.938;30.642;2023-11-25T01:57:00;16.60;;;9.00;;
48925;SDS011;39838;59.938;30.642;2023-11-25T01:59:28;19.35;;;9.57;;
48925;SDS011;39838;59.938;30.642;2023-11-25T02:01:56;20.25;;;8.88;;
48925;SDS011;39838;59.938;30.642;2023-11-25T02:04:26;20.20;;;9.73;;
48925;SDS011;39838;59.938;30.642;2023-11-25T02:06:53;19.00;;;9.75;;
48925;SDS011;39838;59.938;30.642;2023-11-25T02:09:20;21.48;;;10.05;;
48925;SDS011;39838;59.938;30.642;2023-11-25T02:11:53;18.85;;;8.88;;
48925;SDS011;39838;59.938;30.642;2023-11-25T02:14:23;20.60;;;10.30;;
48925;SDS011;39838;59.938;30.642;2023-11-25T02:16:52;21.33;;;10.00;;
48925;SDS011;39838;59.938;30.642;2023-11-25T02:19:21;19.50;;;9.52;;
48925;SDS011;39838;59.938;30.642;2023-11-25T02:21:51;17.42;;;9.23;;
48925;SDS011;39838;59.938;30.642;2023-11-25T02:24:20;20.77;;;9.05;;
48925;SDS011;39838;59.938;30.642;2023-11-25T02:26:56;16.17;;;8.73;;
48925;SDS011;39838;59.938;30.642;2023-11-25T02:29:25;19.25;;;9.57;;
48925;SDS011;39838;59.938;30.642;2023-11-25T02:31:52;18.48;;;9.65;;
48925;SDS011;39838;59.938;30.642;2023-11-25T02:34:20;16.33;;;8.88;;
48925;SDS011;39838;59.938;30.642;2023-11-25T02:36:47;20.38;;;9.82;;
48925;SDS011;39838;59.938;30.642;2023-11-25T02:39:15;17.05;;;8.90;;
48925;SDS011;39838;59.938;30.642;2023-11-25T02:41:47;15.70;;;8.75;;
48925;SDS011;39838;59.938;30.642;2023-11-25T02:44:15;20.08;;;9.20;;
48925;SDS011;39838;59.938;30.642;2023-11-25T02:46:43;17.85;;;8.82;;
48925;SDS011;39838;59.938;30.642;2023-11-25T02:49:11;17.75;;;9.38;;
48925;SDS011;39838;59.938;30.642;2023-11-25T02:51:38;18.38;;;9.35;;
48925;SDS011;39838;59.938;30.642;2023-11-25T02:54:12;16.60;;;8.82;;
48925;SDS011;39838;59.938;30.642;2023-11-25T02:56:40;17.13;;;8.93;;
48925;SDS011;39838;59.938;30.642;2023-11-25T02:59:08;23.98;;;9.73;;
48925;SDS011;39838;59.938;30.642;2023-11-25T03:01:38;19.33;;;9.43;;
48925;SDS011;39838;59.938;30.642;2023-11-25T03:04:13;16.15;;;9.45;;
48925;SDS011;39838;59.938;30.642;2023-11-25T03:06:41;19.23;;;9.45;;
48925;SDS011;39838;59.938;30.642;2023-11-25T03:09:09;18.83;;;9.00;;
48925;SDS011;39838;59.938;30.642;2023-11-25T03:11:37;21.50;;;9.95;;
48925;SDS011;39838;59.938;30.642;2023-11-25T03:14:04;19.83;;;9.20;;
48925;SDS011;39838;59.938;30.642;2023-11-25T03:16:33;17.83;;;9.05;;
48925;SDS011;39838;59.938;30.642;2023-11-25T03:19:00;19.42;;;9.77;;
48925;SDS011;39838;59.938;30.642;2023-11-25T03:21:28;19.38;;;10.50;;
48925;SDS011;39838;59.938;30.642;2023-11-25T03:23:55;23.10;;;9.77;;
48925;SDS011;39838;59.938;30.642;2023-11-25T03:26:24;21.73;;;9.90;;
48925;SDS011;39838;59.938;30.642;2023-11-25T03:28:53;19.10;;;9.80;;
48925;SDS011;39838;59.938;30.642;2023-11-25T03:31:20;21.55;;;9.80;;
48925;SDS011;39838;59.938;30.642;2023-11-25T03:33:50;17.40;;;9.45;;
48925;SDS011;39838;59.938;30.642;2023-11-25T03:36:17;20.80;;;10.35;;
48925;SDS011;39838;59.938;30.642;2023-11-25T03:38:45;18.67;;;9.45;;
48925;SDS011;39838;59.938;30.642;2023-11-25T03:41:12;18.60;;;9.65;;
48925;SDS011;39838;59.938;30.642;2023-11-25T03:43:39;21.70;;;9.52;;
48925;SDS011;39838;59.938;30.642;2023-11-25T03:46:06;18.00;;;9.43;;
48925;SDS011;39838;59.938;30.642;2023-11-25T03:48:34;22.35;;;10.25;;
48925;SDS011;39838;59.938;30.642;2023-11-25T03:51:03;19.50;;;9.30;;
48925;SDS011;39838;59.938;30.642;2023-11-25T03:53:31;21.98;;;9.57;;
48925;SDS011;39838;59.938;30.642;2023-11-25T03:55:58;21.65;;;9.73;;
48925;SDS011;39838;59.938;30.642;2023-11-25T03:58:26;20.77;;;9.77;;
48925;SDS011;39838;59.938;30.642;2023-11-25T04:00:53;20.67;;;9.27;;
48925;SDS011;39838;59.938;30.642;2023-11-25T04:03:20;19.88;;;9.90;;
48925;SDS011;39838;59.938;30.642;2023-11-25T04:05:48;22.33;;;10.20;;
48925;SDS011;39838;59.938;30.642;2023-11-25T04:08:16;19.83;;;9.65;;
48925;SDS011;39838;59.938;30.642;2023-11-25T04:10:44;17.30;;;9.32;;
48925;SDS011;39838;59.938;30.642;2023-11-25T04:13:11;17.65;;;9.65;;
48925;SDS011;39838;59.938;30.642;2023-11-25T04:15:39;21.30;;;9.30;;
48925;SDS011;39838;59.938;30.642;2023-11-25T04:18:05;21.70;;;9.77;;
48925;SDS011;39838;59.938;30.642;2023-11-25T04:20:32;20.05;;;9.75;;
48925;SDS011;39838;59.938;30.642;2023-11-25T04:23:00;18.33;;;9.35;;
48925;SDS011;39838;59.938;30.642;2023-11-25T04:25:32;21.92;;;10.20;;
48925;SDS011;39838;59.938;30.642;2023-11-25T04:28:00;21.65;;;9.88;;
48925;SDS011;39838;59.938;30.642;2023-11-25T04:30:29;21.42;;;9.55;;
48925;SDS011;39838;59.938;30.642;2023-11-25T04:32:57;21.55;;;9.88;;
48925;SDS011;39838;59.938;30.642;2023-11-25T04:35:24;20.80;;;9.23;;
48925;SDS011;39838;59.938;30.642;2023-11-25T04:37:52;18.55;;;9.32;;
48925;SDS011;39838;59.938;30.642;2023-11-25T04:40:19;17.88;;;9.82;;
48925;SDS011;39838;59.938;30.642;2023-11-25T04:42:48;22.90;;;10.63;;
48925;SDS011;39838;59.938;30.642;2023-11-25T04:45:15;19.10;;;10.23;;
48925;SDS011;39838;59.938;30.642;2023-11-25T04:47:44;21.98;;;9.38;;
48925;SDS011;39838;59.938;30.642;2023-11-25T04:50:12;20.58;;;9.68;;
48925;SDS011;39838;59.938;30.642;2023-11-25T04:52:40;19.60;;;9.90;;
48925;SDS011;39838;59.938;30.642;2023-11-25T04:55:08;23.92;;;10.27;;
48925;SDS011;39838;59.938;30.642;2023-11-25T04:57:36;22.25;;;10.18;;
48925;SDS011;39838;59.938;30.642;2023-11-25T05:00:05;22.50;;;10.52;;
48925;SDS011;39838;59.938;30.642;2023-11-25T05:02:35;21.25;;;9.75;;
48925;SDS011;39838;59.938;30.642;2023-11-25T05:05:04;22.38;;;9.63;;
48925;SDS011;39838;59.938;30.642;2023-11-25T05:07:33;18.77;;;9.55;;
48925;SDS011;39838;59.938;30.642;2023-11-25T05:10:01;21.80;;;10.02;;
48925;SDS011;39838;59.938;30.642;2023-11-25T05:12:31;19.67;;;10.27;;
48925;SDS011;39838;59.938;30.642;2023-11-25T05:14:58;20.38;;;9.98;;
48925;SDS011;39838;59.938;30.642;2023-11-25T05:17:28;20.40;;;9.50;;
48925;SDS011;39838;59.938;30.642;2023-11-25T05:19:55;19.30;;;10.70;;
48925;SDS011;39838;59.938;30.642;2023-11-25T05:22:22;29.90;;;11.52;;
48925;SDS011;39838;59.938;30.642;2023-11-25T05:24:53;27.95;;;11.30;;
48925;SDS011;39838;59.938;30.642;2023-11-25T05:27:20;23.42;;;10.18;;
48925;SDS011;39838;59.938;30.642;2023-11-25T05:29:48;23.75;;;10.27;;
48925;SDS011;39838;59.938;30.642;2023-11-25T05:32:16;22.20;;;9.88;;
48925;SDS011;39838;59.938;30.642;2023-11-25T05:34:45;20.55;;;9.70;;
48925;SDS011;39838;59.938;30.642;2023-11-25T05:37:12;23.17;;;10.02;;
48925;SDS011;39838;59.938;30.642;2023-11-25T05:39:39;22.45;;;9.90;;
48925;SDS011;39838;59.938;30.642;2023-11-25T05:42:07;23.02;;;10.73;;
48925;SDS011;39838;59.938;30.642;2023-11-25T05:44:35;22.15;;;10.63;;
48925;SDS011;39838;59.938;30.642;2023-11-25T05:47:03;20.52;;;9.88;;
48925;SDS011;39838;59.938;30.642;2023-11-25T05:49:30;19.58;;;10.23;;
48925;SDS011;39838;59.938;30.642;2023-11-25T05:51:59;25.30;;;10.73;;
48925;SDS011;39838;59.938;30.642;2023-11-25T05:54:26;20.55;;;10.68;;
48925;SDS011;39838;59.938;30.642;2023-11-25T05:56:54;22.40;;;10.07;;
48925;SDS011;39838;59.938;30.642;2023-11-25T05:59:21;21.00;;;10.57;;
48925;SDS011;39838;59.938;30.642;2023-11-25T06:01:48;20.27;;;9.95;;
48925;SDS011;39838;59.938;30.642;2023-11-25T06:04:16;24.08;;;10.95;;
48925;SDS011;39838;59.938;30.642;2023-11-25T06:06:43;22.50;;;9.98;;
48925;SDS011;39838;59.938;30.642;2023-11-25T06:09:12;20.42;;;10.35;;
48925;SDS011;39838;59.938;30.642;2023-11-25T06:11:40;20.95;;;10.05;;
48925;SDS011;39838;59.938;30.642;2023-11-25T06:14:08;21.30;;;10.10;;
48925;SDS011;39838;59.938;30.642;2023-11-25T06:16:37;19.00;;;10.60;;
48925;SDS011;39838;59.938;30.642;2023-11-25T06:19:07;25.10;;;13.40;;
48925;SDS011;39838;59.938;30.642;2023-11-25T06:21:35;21.65;;;10.52;;
48925;SDS011;39838;59.938;30.642;2023-11-25T06:24:04;24.73;;;11.32;;
48925;SDS011;39838;59.938;30.642;2023-11-25T06:26:33;24.42;;;10.85;;
48925;SDS011;39838;59.938;30.642;2023-11-25T06:29:01;23.08;;;10.60;;
48925;SDS011;39838;59.938;30.642;2023-11-25T06:31:29;22.75;;;10.45;;
48925;SDS011;39838;59.938;30.642;2023-11-25T06:33:59;20.63;;;10.45;;
48925;SDS011;39838;59.938;30.642;2023-11-25T06:36:27;24.77;;;10.88;;
48925;SDS011;39838;59.938;30.642;2023-11-25T06:38:54;25.40;;;10.85;;
48925;SDS011;39838;59.938;30.642;2023-11-25T06:41:21;24.38;;;11.63;;
48925;SDS011;39838;59.938;30.642;2023-11-25T06:43:52;23.88;;;11.55;;
48925;SDS011;39838;59.938;30.642;2023-11-25T06:46:19;21.70;;;11.23;;
48925;SDS011;39838;59.938;30.642;2023-11-25T06:48:48;20.80;;;10.52;;
48925;SDS011;39838;59.938;30.642;2023-11-25T06:51:16;21.67;;;10.02;;
48925;SDS011;39838;59.938;30.642;2023-11-25T06:53:43;21.48;;;10.98;;
48925;SDS011;39838;59.938;30.642;2023-11-25T06:56:10;20.98;;;11.20;;
48925;SDS011;39838;59.938;30.642;2023-11-25T06:58:38;28.23;;;11.65;;
48925;SDS011;39838;59.938;30.642;2023-11-25T07:01:07;23.35;;;11.73;;
48925;SDS011;39838;59.938;30.642;2023-11-25T07:03:35;22.48;;;11.13;;
48925;SDS011;39838;59.938;30.642;2023-11-25T07:06:02;25.25;;;11.30;;
48925;SDS011;39838;59.938;30.642;2023-11-25T07:08:30;23.13;;;11.38;;
48925;SDS011;39838;59.938;30.642;2023-11-25T07:10:58;23.42;;;11.05;;
48925;SDS011;39838;59.938;30.642;2023-11-25T07:13:30;20.85;;;11.20;;
48925;SDS011;39838;59.938;30.642;2023-11-25T07:15:57;26.05;;;11.88;;
48925;SDS011;39838;59.938;30.642;2023-11-25T07:18:28;24.75;;;11.43;;
48925;SDS011;39838;59.938;30.642;2023-11-25T07:20:55;24.98;;;11.57;;
48925;SDS011;39838;59.938;30.642;2023-11-25T07:23:23;22.42;;;10.90;;
48925;SDS011;39838;59.938;30.642;2023-11-25T07:25:50;24.40;;;11.15;;
48925;SDS011;39838;59.938;30.642;2023-11-25T07:28:17;25.23;;;10.48;;
48925;SDS011;39838;59.938;30.642;2023-11-25T07:30:44;22.55;;;10.20;;
48925;SDS011;39838;59.938;30.642;2023-11-25T07:33:12;22.25;;;10.10;;
48925;SDS011;39838;59.938;30.642;2023-11-25T07:35:40;20.38;;;10.25;;
48925;SDS011;39838;59.938;30.642;2023-11-25T07:38:08;23.45;;;10.10;;
48925;SDS011;39838;59.938;30.642;2023-11-25T07:40:35;19.67;;;10.43;;
48925;SDS011;39838;59.938;30.642;2023-11-25T07:43:02;20.95;;;11.07;;
48925;SDS011;39838;59.938;30.642;2023-11-25T07:45:29;24.35;;;10.55;;
48925;SDS011;39838;59.938;30.642;2023-11-25T07:47:57;21.08;;;10.80;;
48925;SDS011;39838;59.938;30.642;2023-11-25T07:50:26;19.67;;;10.38;;
48925;SDS011;39838;59.938;30.642;2023-11-25T07:52:55;23.90;;;10.80;;
48925;SDS011;39838;59.938;30.642;2023-11-25T07:55:22;29.80;;;14.13;;
48925;SDS011;39838;59.938;30.642;2023-11-25T07:57:49;20.90;;;9.20;;
48925;SDS011;39838;59.938;30.642;2023-11-25T08:00:16;17.20;;;9.15;;
48925;SDS011;39838;59.938;30.642;2023-11-25T08:02:46;22.35;;;9.45;;
48925;SDS011;39838;59.938;30.642;2023-11-25T08:05:14;23.40;;;9.77;;
48925;SDS011;39838;59.938;30.642;2023-11-25T08:07:48;21.50;;;11.00;;
48925;SDS011;39838;59.938;30.642;2023-11-25T08:10:17;26.52;;;11.20;;
48925;SDS011;39838;59.938;30.642;2023-11-25T08:12:46;19.50;;;10.23;;
48925;SDS011;39838;59.938;30.642;2023-11-25T08:15:13;25.40;;;11.10;;
48925;SDS011;39838;59.938;30.642;2023-11-25T08:17:41;25.27;;;11.55;;
48925;SDS011;39838;59.938;30.642;2023-11-25T08:20:08;23.15;;;11.35;;
48925;SDS011;39838;59.938;30.642;2023-11-25T08:22:37;23.17;;;11.27;;
48925;SDS011;39838;59.938;30.642;2023-11-25T08:25:05;22.23;;;11.45;;
48925;SDS011;39838;59.938;30.642;2023-11-25T08:27:36;27.67;;;13.13;;
48925;SDS011;39838;59.938;30.642;2023-11-25T08:30:05;27.42;;;13.30;;
48925;SDS011;39838;59.938;30.642;2023-11-25T08:32:34;28.52;;;13.27;;
48925;SDS011;39838;59.938;30.642;2023-11-25T08:35:01;27.83;;;12.70;;
48925;SDS011;39838;59.938;30.642;2023-11-25T08:37:29;23.33;;;11.70;;
48925;SDS011;39838;59.938;30.642;2023-11-25T08:39:56;24.15;;;13.15;;
48925;SDS011;39838;59.938;30.642;2023-11-25T08:42:25;28.85;;;13.27;;
48925;SDS011;39838;59.938;30.642;2023-11-25T08:44:57;27.65;;;12.60;;
48925;SDS011;39838;59.938;30.642;2023-11-25T08:47:31;27.90;;;13.15;;
48925;SDS011;39838;59.938;30.642;2023-11-25T08:50:00;25.70;;;12.27;;
48925;SDS011;39838;59.938;30.642;2023-11-25T08:52:32;24.40;;;11.73;;
48925;SDS011;39838;59.938;30.642;2023-11-25T08:55:05;26.95;;;11.77;;
48925;SDS011;39838;59.938;30.642;2023-11-25T08:57:34;24.33;;;11.25;;
48925;SDS011;39838;59.938;30.642;2023-11-25T09:00:05;28.73;;;12.88;;
48925;SDS011;39838;59.938;30.642;2023-11-25T09:02:40;26.67;;;12.15;;
48925;SDS011;39838;59.938;30.642;2023-11-25T09:05:08;28.15;;;12.57;;
48925;SDS011;39838;59.938;30.642;2023-11-25T09:07:36;28.33;;;13.05;;
48925;SDS011;39838;59.938;30.642;2023-11-25T09:10:05;25.80;;;11.70;;
48925;SDS011;39838;59.938;30.642;2023-11-25T09:12:34;22.33;;;11.52;;
48925;SDS011;39838;59.938;30.642;2023-11-25T09:15:02;25.20;;;12.38;;
48925;SDS011;39838;59.938;30.642;2023-11-25T09:17:33;25.60;;;11.98;;
48925;SDS011;39838;59.938;30.642;2023-11-25T09:20:04;23.65;;;11.98;;
48925;SDS011;39838;59.938;30.642;2023-11-25T09:22:35;25.73;;;12.00;;
48925;SDS011;39838;59.938;30.642;2023-11-25T09:25:03;26.67;;;12.70;;
48925;SDS011;39838;59.938;30.642;2023-11-25T09:27:31;22.15;;;11.27;;
48925;SDS011;39838;59.938;30.642;2023-11-25T09:29:59;22.38;;;10.88;;
48925;SDS011;39838;59.938;30.642;2023-11-25T09:32:27;20.90;;;10.80;;
48925;SDS011;39838;59.938;30.642;2023-11-25T09:34:55;22.90;;;10.93;;
48925;SDS011;39838;59.938;30.642;2023-11-25T09:37:24;22.95;;;10.43;;
48925;SDS011;39838;59.938;30.642;2023-11-25T09:39:51;18.70;;;10.38;;
48925;SDS011;39838;59.938;30.642;2023-11-25T09:42:18;23.40;;;10.55;;
48925;SDS011;39838;59.938;30.642;2023-11-25T09:44:46;23.45;;;9.82;;
48925;SDS011;39838;59.938;30.642;2023-11-25T09:47:15;20.70;;;9.68;;
48925;SDS011;39838;59.938;30.642;2023-11-25T09:49:44;21.20;;;10.13;;
48925;SDS011;39838;59.938;30.642;2023-11-25T09:52:12;19.40;;;9.38;;
48925;SDS011;39838;59.938;30.642;2023-11-25T09:54:45;18.42;;;9.43;;
48925;SDS011;39838;59.938;30.642;2023-11-25T09:57:14;22.00;;;10.20;;
48925;SDS011;39838;59.938;30.642;2023-11-25T09:59:44;23.17;;;10.43;;
48925;SDS011;39838;59.938;30.642;2023-11-25T10:02:12;20.25;;;9.57;;
48925;SDS011;39838;59.938;30.642;2023-11-25T10:04:44;21.00;;;9.85;;
48925;SDS011;39838;59.938;30.642;2023-11-25T10:07:13;17.90;;;9.07;;
48925;SDS011;39838;59.938;30.642;2023-11-25T10:09:41;21.67;;;9.02;;
48925;SDS011;39838;59.938;30.642;2023-11-25T10:12:09;17.17;;;9.30;;
48925;SDS011;39838;59.938;30.642;2023-11-25T10:14:38;18.30;;;9.88;;
48925;SDS011;39838;59.938;30.642;2023-11-25T10:17:16;19.20;;;9.48;;
48925;SDS011;39838;59.938;30.642;2023-11-25T10:19:46;22.33;;;10.30;;
48925;SDS011;39838;59.938;30.642;2023-11-25T10:22:14;19.45;;;9.88;;
48925;SDS011;39838;59.938;30.642;2023-11-25T10:24:43;22.58;;;10.10;;
48925;SDS011;39838;59.938;30.642;2023-11-25T10:27:12;23.73;;;9.98;;
48925;SDS011;39838;59.938;30.642;2023-11-25T10:29:41;21.67;;;9.82;;
48925;SDS011;39838;59.938;30.642;2023-11-25T10:32:09;18.65;;;9.30;;
48925;SDS011;39838;59.938;30.642;2023-11-25T10:34:36;27.38;;;9.88;;
48925;SDS011;39838;59.938;30.642;2023-11-25T10:37:05;22.25;;;9.88;;
48925;SDS011;39838;59.938;30.642;2023-11-25T10:39:35;20.33;;;9.75;;
48925;SDS011;39838;59.938;30.642;2023-11-25T10:42:02;20.48;;;9.30;;
48925;SDS011;39838;59.938;30.642;2023-11-25T10:44:33;19.63;;;9.85;;
48925;SDS011;39838;59.938;30.642;2023-11-25T10:47:01;23.13;;;9.32;;
48925;SDS011;39838;59.938;30.642;2023-11-25T10:49:30;23.55;;;9.98;;
48925;SDS011;39838;59.938;30.642;2023-11-25T10:52:01;22.75;;;11.10;;
48925;SDS011;39838;59.938;30.642;2023-11-25T10:54:31;22.10;;;12.18;;
48925;SDS011;39838;59.938;30.642;2023-11-25T10:57:01;25.48;;;10.73;;
48925;SDS011;39838;59.938;30.642;2023-11-25T10:59:31;22.67;;;11.38;;
48925;SDS011;39838;59.938;30.642;2023-11-25T11:01:59;22.33;;;10.75;;
48925;SDS011;39838;59.938;30.642;2023-11-25T11:04:31;22.20;;;10.85;;
48925;SDS011;39838;59.938;30.642;2023-11-25T11:07:03;21.67;;;11.05;;
48925;SDS011;39838;59.938;30.642;2023-11-25T11:09:34;26.00;;;11.25;;
48925;SDS011;39838;59.938;30.642;2023-11-25T11:12:04;22.05;;;11.05;;
48925;SDS011;39838;59.938;30.642;2023-11-25T11:14:38;21.98;;;10.73;;
48925;SDS011;39838;59.938;30.642;2023-11-25T11:17:15;23.55;;;11.18;;
48925;SDS011;39838;59.938;30.642;2023-11-25T11:19:50;23.55;;;10.85;;
48925;SDS011;39838;59.938;30.642;2023-11-25T11:22:21;22.92;;;11.00;;
48925;SDS011;39838;59.938;30.642;2023-11-25T11:24:54;20.98;;;11.60;;
48925;SDS011;39838;59.938;30.642;2023-11-25T11:27:35;22.88;;;11.68;;
48925;SDS011;39838;59.938;30.642;2023-11-25T11:32:38;27.55;;;13.15;;
48925;SDS011;39838;59.938;30.642;2023-11-25T11:35:07;38.92;;;18.02;;
48925;SDS011;39838;59.938;30.642;2023-11-25T11:37:35;27.95;;;13.43;;
48925;SDS011;39838;59.938;30.642;2023-11-25T11:40:07;24.05;;;13.32;;
48925;SDS011;39838;59.938;30.642;2023-11-25T11:42:35;26.95;;;11.43;;
48925;SDS011;39838;59.938;30.642;2023-11-25T11:45:07;26.98;;;11.63;;
48925;SDS011;39838;59.938;30.642;2023-11-25T11:47:43;26.42;;;11.32;;
48925;SDS011;39838;59.938;30.642;2023-11-25T11:50:15;24.92;;;11.30;;
48925;SDS011;39838;59.938;30.642;2023-11-25T11:52:45;20.33;;;10.70;;
48925;SDS011;39838;59.938;30.642;2023-11-25T11:55:40;27.45;;;11.98;;
48925;SDS011;39838;59.938;30.642;2023-11-25T11:58:16;23.95;;;11.80;;
48925;SDS011;39838;59.938;30.642;2023-11-25T12:00:47;27.05;;;12.32;;
48925;SDS011;39838;59.938;30.642;2023-11-25T12:03:19;26.83;;;12.82;;
48925;SDS011;39838;59.938;30.642;2023-11-25T12:05:47;24.42;;;11.02;;
48925;SDS011;39838;59.938;30.642;2023-11-25T12:08:16;27.30;;;14.40;;
48925;SDS011;39838;59.938;30.642;2023-11-25T12:10:45;30.13;;;13.38;;
48925;SDS011;39838;59.938;30.642;2023-11-25T12:13:23;30.65;;;15.05;;
48925;SDS011;39838;59.938;30.642;2023-11-25T12:15:51;32.15;;;14.63;;
48925;SDS011;39838;59.938;30.642;2023-11-25T12:18:19;34.22;;;18.25;;
48925;SDS011;39838;59.938;30.642;2023-11-25T12:20:47;35.00;;;19.60;;
48925;SDS011;39838;59.938;30.642;2023-11-25T12:23:16;37.45;;;20.50;;
48925;SDS011;39838;59.938;30.642;2023-11-25T12:25:43;28.35;;;15.95;;
48925;SDS011;39838;59.938;30.642;2023-11-25T12:28:12;28.70;;;13.80;;
48925;SDS011;39838;59.938;30.642;2023-11-25T12:30:41;26.77;;;13.23;;
48925;SDS011;39838;59.938;30.642;2023-11-25T12:33:09;27.45;;;12.10;;
48925;SDS011;39838;59.938;30.642;2023-11-25T12:35:39;28.40;;;12.63;;
48925;SDS011;39838;59.938;30.642;2023-11-25T12:38:09;30.15;;;12.88;;
48925;SDS011;39838;59.938;30.642;2023-11-25T12:40:37;27.40;;;11.95;;
48925;SDS011;39838;59.938;30.642;2023-11-25T12:43:06;25.20;;;12.18;;
48925;SDS011;39838;59.938;30.642;2023-11-25T12:45:36;35.17;;;13.65;;
48925;SDS011;39838;59.938;30.642;2023-11-25T12:48:06;27.80;;;12.93;;
48925;SDS011;39838;59.938;30.642;2023-11-25T12:50:35;30.60;;;12.35;;
48925;SDS011;39838;59.938;30.642;2023-11-25T12:53:22;26.48;;;13.05;;
48925;SDS011;39838;59.938;30.642;2023-11-25T12:55:50;29.23;;;12.88;;
48925;SDS011;39838;59.938;30.642;2023-11-25T12:58:18;30.08;;;12.43;;
48925;SDS011;39838;59.938;30.642;2023-11-25T13:00:46;29.67;;;13.88;;
48925;SDS011;39838;59.938;30.642;2023-11-25T13:03:21;30.23;;;13.73;;
48925;SDS011;39838;59.938;30.642;2023-11-25T13:05:49;29.58;;;13.75;;
48925;SDS011;39838;59.938;30.642;2023-11-25T13:08:21;32.25;;;13.90;;
48925;SDS011;39838;59.938;30.642;2023-11-25T13:10:49;27.02;;;13.25;;
48925;SDS011;39838;59.938;30.642;2023-11-25T13:13:16;39.65;;;16.92;;
48925;SDS011;39838;59.938;30.642;2023-11-25T13:15:46;41.00;;;18.52;;
48925;SDS011;39838;59.938;30.642;2023-11-25T13:18:13;48.35;;;20.20;;
48925;SDS011;39838;59.938;30.642;2023-11-25T13:20:41;48.75;;;19.95;;
48925;SDS011;39838;59.938;30.642;2023-11-25T13:23:09;39.60;;;17.52;;
48925;SDS011;39838;59.938;30.642;2023-11-25T13:25:37;39.65;;;16.75;;
48925;SDS011;39838;59.938;30.642;2023-11-25T13:28:04;36.03;;;14.95;;
48925;SDS011;39838;59.938;30.642;2023-11-25T13:30:36;32.42;;;14.98;;
48925;SDS011;39838;59.938;30.642;2023-11-25T13:33:03;34.33;;;15.32;;
48925;SDS011;39838;59.938;30.642;2023-11-25T13:35:30;30.63;;;13.43;;
48925;SDS011;39838;59.938;30.642;2023-11-25T13:37:59;33.60;;;15.77;;
48925;SDS011;39838;59.938;30.642;2023-11-25T13:40:26;31.85;;;15.48;;
48925;SDS011;39838;59.938;30.642;2023-11-25T13:42:59;28.75;;;14.23;;
48925;SDS011;39838;59.938;30.642;2023-11-25T13:45:27;37.10;;;15.70;;
48925;SDS011;39838;59.938;30.642;2023-11-25T13:47:56;31.60;;;14.30;;
48925;SDS011;39838;59.938;30.642;2023-11-25T13:50:26;27.70;;;13.23;;
48925;SDS011;39838;59.938;30.642;2023-11-25T13:52:53;29.80;;;13.38;;
48925;SDS011;39838;59.938;30.642;2023-11-25T13:55:21;24.15;;;11.88;;
48925;SDS011;39838;59.938;30.642;2023-11-25T13:57:49;21.75;;;11.10;;
48925;SDS011;39838;59.938;30.642;2023-11-25T14:00:17;27.73;;;11.45;;
48925;SDS011;39838;59.938;30.642;2023-11-25T14:02:45;23.23;;;10.80;;
48925;SDS011;39838;59.938;30.642;2023-11-25T14:05:14;26.67;;;11.70;;
48925;SDS011;39838;59.938;30.642;2023-11-25T14:07:41;26.73;;;11.85;;
48925;SDS011;39838;59.938;30.642;2023-11-25T14:10:09;29.75;;;12.80;;
48925;SDS011;39838;59.938;30.642;2023-11-25T14:12:38;23.90;;;11.55;;
48925;SDS011;39838;59.938;30.642;2023-11-25T14:15:06;30.35;;;13.73;;
48925;SDS011;39838;59.938;30.642;2023-11-25T14:17:35;31.48;;;11.90;;
48925;SDS011;39838;59.938;30.642;2023-11-25T14:20:05;27.42;;;12.38;;
48925;SDS011;39838;59.938;30.642;2023-11-25T14:22:43;27.02;;;12.27;;
48925;SDS011;39838;59.938;30.642;2023-11-25T14:25:12;31.38;;;13.10;;